Crook, Colorado
Current Conditions -  °F | °C
As of 12:53 PM on Saturday 20 Dec 2014 (Local Time) from KSNY Reporting Station
Clear Clear  
Wind Chill: 40°   Ceiling: Unl
Heat Index: 45°   Visibility: 10mi
Dew Point: 29°   Wind: 9mph
Humidity: 53%   Direction: 320°NW
Pressure: 29.96"   Gusts: NA
Location:  40.86°N, 102.8°W
Report Text: KSNY 201953Z AUTO 32008KT 10SM CLR 07/M02 A2996 RMK AO2 SLP167 T00721017
Loading
Personal Weather Stations






























Interactive Weather Map New forecast layout! Learn more

10-Day Weather Forecast

Advertisements
Track Severe Weather on mobile